CPX619 Details

Departure: Morgantown Municipal Airport (KMGW)
Arrival: Washington Dulles International Airport (KIAD)
Route: MOTME V144 ESL V4 MANNE


Current Weather Information
KMGW 191553Z 27007KT 10SM FEW035 29/18 A3010 RMK AO2 SLP179 T02890183
KIAD 191552Z VRB04KT 10SM FEW140 SCT250 32/21 A3002 RMK AO2 SLP163 T03170206